SAZM/MDD METAR and TAF weather

Enter ICAO airport designator
Station Type Date Time Source
SAZM METAR 2024/06/16 09:00 UTC NOAA

SAZM 160900Z 32005KT CAVOK 04/02 Q1020


Station Type Date Time Source
SAZM Decoded METAR 2024/06/16 09:00 UTC NOAA

Mar Del Plata Aerodrome, Argentina (SAZM) 37-56S 057-35W 21M
Jun 16, 2024 - 05:00 AM EDT / 2024.06.16 0900 UTC
Wind: from the NW (320 degrees) at 6 MPH (5 KT):0
Visibility: greater than 7 mile(s):0
Temperature: 39 F (4 C)
Dew Point: 35 F (2 C)
Relative Humidity: 86%
Pressure (altimeter): 30.12 in. Hg (1020 hPa)
ob: SAZM 160900Z 32005KT CAVOK 04/02 Q1020
cycle: 9

Station Type Date Time Source
SAZM TAF 2024/06/16 06:36 UTC NOAA